LexMAWeather

Lexington, Massachusetts, USA

67°F
4/20/2019 4:28am 
  • Lexington Conditions: Overcast
  • Temperature: 67.1°F / 19.5°CWarmer 0.9°F than last hour.
  • Dew Point: 64.8°FIncreased 0.4°Fsince last hour.
  • Relative Humidity: 92%Decreased 2.0% since last hour.
  • Wind: W 4 mph, 10-min avg: 5 mph, gust: 11 mph
  • Barometer: 29.72 in Steady
  • Visibility: 9 miles
  • Rain Today: 0.05 in
  •   

Nearby Reports - Official Weather Stations - Current Conditions

Data from the National Weather Service

KBED - Bedford, MA


Distance from station: WNW 4mi, 6km

Updated Sat Apr 20, 2019 3:56am EDT

Overcast

Overcast

Wind from S

Wind:

S 16 mph , 26 km/h,
Gust: 24 mph , 39 km/h

Temperature: 70°F (21°C)

Dew Point: 63°F (17°C)

Humidity: 78%

Barometer: 29.72 in (1006.4 hPa)

Clouds: Overcast

Visibility: 9 miles (14 km)

Cloud details: Mostly cloudy 1900 ft
Overcast 2700 ft


2019/04/20 07:56 KBED 200756Z AUTO 17014G21KT 9SM BKN019 OVC027 21/17 A2972 RMK AO2 PK WND 21026/0710 SLP075 T02060172

KBOS - Boston, MA


Distance from station: ESE 12mi, 20km

Updated Sat Apr 20, 2019 2:54am EDT (NOT Current)

Overcast

Overcast

Wind from S

Wind:

S 24 mph , 39 km/h,
Gust: 36 mph , 57 km/h

Temperature: 66°F (19°C)

Dew Point: 63°F (17°C)

Humidity: 88%

Barometer: 29.77 in (1008.1 hPa)

Clouds: Overcast

Visibility: 10 miles (16 km)

Cloud details: Overcast 1300 ft


2019/04/20 06:54 KBOS 200654Z 19021G31KT 10SM OVC013 19/17 A2977 RMK AO2 PK WND 20032/0637 SLP081 T01940167

KOWD - Norwood, MA


Distance from station: SSE 18mi, 29km

Updated Sat Apr 20, 2019 4:06am EDT

Overcast

Overcast

Wind from S

Wind:

S 16 mph , 26 km/h,
Gust: 25 mph , 41 km/h

Temperature: 66°F (19°C)

Dew Point: 63°F (17°C)

Humidity: 88%

Barometer: 29.78 in (1008.5 hPa)

Clouds: Overcast

Visibility: 9 miles (14 km)

Cloud details: Overcast 1000 ft


2019/04/20 08:06 KOWD 200806Z AUTO 18014G22KT 9SM OVC010 19/17 A2978 RMK AO2 CIG 008V014 T01940167 TSNO

KBVY - Beverly, MA


Distance from station: ENE 19mi, 31km

Updated Sat Apr 20, 2019 3:53am EDT

Overcast

Overcast

Wind from S

Wind:

S 16 mph , 26 km/h,
Gust: 24 mph , 39 km/h

Temperature: 66°F (19°C)

Dew Point: 63°F (17°C)

Humidity: 88%

Barometer: 29.77 in (1008.1 hPa)

Clouds: Overcast

Visibility: 10 miles (16 km)

Cloud details: Overcast 1400 ft


2019/04/20 07:53 KBVY 200753Z AUTO 19014G21KT 10SM OVC014 19/17 A2977 RMK AO2 SLP074 T01940167

KLWM - Lawrence, MA


Distance from station: NNE 20mi, 32km

Updated Sat Apr 20, 2019 3:54am EDT

Overcast

Overcast

Wind from SSW

Wind:

SSW 13 mph , 20 km/h,
Gust: 21 mph , 33 km/h

Temperature: 66°F (19°C)

Dew Point: 63°F (17°C)

Humidity: 88%

Barometer: 29.76 in (1007.8 hPa)

Clouds: Overcast

Visibility: 10 miles (16 km)

Cloud details: Mostly cloudy 1800 ft
Overcast 2200 ft


2019/04/20 07:54 KLWM 200754Z AUTO 20011G18KT 10SM BKN018 OVC022 19/17 A2976 RMK AO2 RAB14E25 SLP077 P0000 T01940172

KFIT - Fitchburg, MA


Distance from station: WNW 27mi, 44km

Updated Sat Apr 20, 2019 3:52am EDT

Mostly cloudy

Mostly cloudy

Wind from S

Wind:

S 10 mph , 17 km/h

Temperature: 66°F (19°C)

Dew Point: 63°F (17°C)

Humidity: 88%

Barometer: 29.72 in (1006.4 hPa)

Clouds: Mostly cloudy

Visibility: 10 miles (16 km)

Cloud details: Partly cloudy 2000 ft
Mostly cloudy 2500 ft
Mostly cloudy 3200 ft


2019/04/20 07:52 KFIT 200752Z AUTO 18009KT 10SM SCT020 BKN025 BKN032 19/17 A2972 RMK AO2 RAB02E05B22E44 SLP064 P0004 T01940172

KASH - Nashua/Boire Fld, NH


Distance from station: NNW 28mi, 44km

Updated Sat Apr 20, 2019 3:56am EDT

Light rain

Light rain

Wind from varies

Wind:

varies 7 mph , 11 km/h

Temperature: 66°F (19°C)

Dew Point: 66°F (19°C)

Humidity: 100%

Barometer: 29.71 in (1006.1 hPa)

Summary: Light rain

Visibility: 10 miles (16 km)


2019/04/20 07:56 KASH 200756Z AUTO VRB06KT 10SM -RA 19/19 A2971 RMK AO2 RAB37 PRESFR SLP069 P0002 T01940194 $

KORH - Worcester, MA


Distance from station: WSW 34mi, 55km

Updated Sat Apr 20, 2019 3:54am EDT

Overcast

Overcast

Wind from S

Wind:

S 18 mph , 30 km/h,
Gust: 26 mph , 43 km/h

Temperature: 64°F (18°C)

Dew Point: 63°F (17°C)

Humidity: 94%

Barometer: 29.76 in (1007.8 hPa)

Clouds: Overcast

Visibility: 10 miles (16 km)

Cloud details: Overcast 800 ft


2019/04/20 07:54 KORH 200754Z AUTO 19016G23KT 10SM OVC008 18/17 A2976 RMK AO2 PK WND 20028/0703 RAE48 CIG 005V011 SLP075 P0004 T01780167

KMHT - Manchester, NH


Distance from station: NNW 35mi, 57km

Updated Sat Apr 20, 2019 3:53am EDT

Light rain, Overcast

Light rain, Overcast

Wind from S

Wind:

S 20 mph , 31 km/h,
Gust: 28 mph , 44 km/h

Temperature: 70°F (21°C)

Dew Point: 63°F (17°C)

Humidity: 78%

Barometer: 29.70 in (1005.8 hPa)

Summary: Light rain

Clouds: Overcast

Visibility: 9 miles (14 km)

Cloud details: Mostly cloudy 1900 ft
Mostly cloudy 4100 ft
Overcast 10000 ft


2019/04/20 07:53 KMHT 200753Z 17017G24KT 9SM -RA BKN019 BKN041 OVC100 21/17 A2970 RMK AO2 RAB45 SLP066 P0000 T02060172

KGHG - Marshfield, MA


Distance from station: SE 38mi, 60km

Updated Sat Apr 20, 2019 3:55am EDT

Overcast

Overcast

Wind from SSW

Wind:

SSW 20 mph , 31 km/h,
Gust: 32 mph , 52 km/h

Temperature: 66°F (19°C)

Dew Point: 64°F (18°C)

Humidity: 94%

Barometer: 29.81 in (1009.5 hPa)

Clouds: Overcast

Visibility: 10 miles (16 km)

Cloud details: Overcast 1000 ft


2019/04/20 07:55 KGHG 200755Z AUTO 20017G28KT 10SM OVC010 19/18 A2981 RMK AO2

KSFZ - Pawtucket, RI


Distance from station: SSW 39mi, 62km

Updated Sat Apr 20, 2019 3:56am EDT

Heavy rain, Mist, Overcast

Heavy rain, Mist, Overcast

Wind from SW

Wind:

SW 8 mph , 13 km/h,
Gust: 26 mph , 43 km/h

Temperature: 64°F (18°C)

Dew Point: 64°F (18°C)

Humidity: 100%

Barometer: 29.79 in (1008.8 hPa)

Summary: Heavy rain, Mist

Clouds: Overcast

Visibility: 3 miles (5 km)

Cloud details: Overcast 800 ft


2019/04/20 07:56 KSFZ 200756Z AUTO 22007G23KT 180V250 3SM +RA BR OVC008 18/18 A2979 RMK AO2 RAB40 CIG 004V012 SLP034 P0012 T01830178

KTAN - Taunton, MA


Distance from station: SSE 40mi, 65km

Updated Sat Apr 20, 2019 3:52am EDT

Overcast

Overcast

Wind from S

Wind:

S 17 mph , 28 km/h,
Gust: 29 mph , 46 km/h

Temperature: 66°F (19°C)

Dew Point: 63°F (17°C)

Humidity: 88%

Barometer: 29.81 in (1009.5 hPa)

Clouds: Overcast

Visibility: 10 miles (16 km)

Cloud details: Overcast 1100 ft


2019/04/20 07:52 KTAN 200752Z AUTO 19015G25KT 10SM OVC011 19/17 A2981 RMK AO2 PK WND 20026/0731 CIG 009V014 SLP093 T01940172

KPYM - Plymouth, MA


Distance from station: SE 44mi, 72km

Updated Sat Apr 20, 2019 3:52am EDT

Overcast

Overcast

Wind from SSW

Wind:

SSW 17 mph , 28 km/h,
Gust: 32 mph , 52 km/h

Temperature: 64°F (18°C)

Dew Point: 63°F (17°C)

Humidity: 94%

Barometer: 29.83 in (1010.2 hPa)

Clouds: Overcast

Visibility: 8 miles (13 km)

Cloud details: Overcast 600 ft


2019/04/20 07:52 KPYM 200752Z AUTO 20015G28KT 150V220 8SM OVC006 18/17 A2983 RMK AO2 PK WND 19035/0657 SLP099 T01780167

KAFN - Jaffrey, NH


Distance from station: WNW 46mi, 74km

Updated Sat Apr 20, 2019 4:03am EDT

Light rain, Overcast

Light rain, Overcast

Wind from SSW

Wind:

SSW 12 mph , 19 km/h,
Gust: 26 mph , 43 km/h

Temperature: 66°F (19°C)

Dew Point: 63°F (17°C)

Humidity: 88%

Barometer: 29.72 in (1006.4 hPa)

Summary: Light rain

Clouds: Overcast

Visibility: 9 miles (14 km)

Cloud details: Few Clouds 1000 ft
Mostly cloudy 1500 ft
Overcast 2100 ft


2019/04/20 08:03 KAFN 200803Z AUTO 21010G23KT 9SM -RA FEW010 BKN015 OVC021 19/17 A2972 RMK AO2 P0000 T01890167

KPSM - Portsmouth/Pease, NH


Distance from station: NNE 48mi, 78km

Updated Sat Apr 20, 2019 3:56am EDT

Mist, Overcast

Mist, Overcast

Wind from S

Wind:

S 15 mph , 24 km/h

Temperature: 66°F (19°C)

Dew Point: 63°F (17°C)

Humidity: 88%

Barometer: 29.74 in (1007.1 hPa)

Summary: Mist

Clouds: Overcast

Visibility: 6 miles (10 km)

Cloud details: Partly cloudy 1200 ft
Mostly cloudy 1800 ft
Overcast 2500 ft


2019/04/20 07:56 KPSM 200756Z 19013KT 6SM BR SCT012 BKN018 OVC025 19/17 A2974 RMK AO2A SLP073 T01940174

KPVD - Providence/Green, RI


Distance from station: S 51mi, 82km

Updated Sat Apr 20, 2019 3:51am EDT

Overcast

Overcast

Wind from S

Wind:

S 16 mph , 26 km/h,
Gust: 30 mph , 48 km/h

Temperature: 64°F (18°C)

Dew Point: 63°F (17°C)

Humidity: 94%

Barometer: 29.80 in (1009.1 hPa)

Clouds: Overcast

Visibility: 9 miles (14 km)

Cloud details: Overcast 900 ft


2019/04/20 07:51 KPVD 200751Z AUTO 18014G26KT 9SM OVC009 18/17 A2980 RMK AO2 PK WND 20035/0654 SLP089 T01830172

KCON - Concord, NH


Distance from station: NNW 54mi, 87km

Updated Sat Apr 20, 2019 4:07am EDT

Rain, Mist, Overcast

Rain, Mist, Overcast

Wind from SSE

Wind:

SSE 8 mph , 13 km/h

Temperature: 64°F (18°C)

Dew Point: 63°F (17°C)

Humidity: 94%

Barometer: 29.70 in (1005.8 hPa)

Summary: Rain, Mist

Clouds: Overcast

Visibility: 3 miles (5 km)

Cloud details: Few Clouds 1500 ft
Mostly cloudy 3100 ft
Overcast 5000 ft


2019/04/20 08:07 KCON 200807Z AUTO 16007KT 3SM RA BR FEW015 BKN031 OVC050 18/17 A2970 RMK AO2 P0007 T01830172

KEWB - New Bedford, MA


Distance from station: SSE 54mi, 87km

Updated Sat Apr 20, 2019 3:53am EDT

Overcast

Overcast

Wind from SSW

Wind:

SSW 23 mph , 37 km/h,
Gust: 36 mph , 57 km/h

Temperature: 63°F (17°C)

Dew Point: 63°F (17°C)

Humidity: 100%

Barometer: 29.82 in (1009.8 hPa)

Clouds: Overcast

Visibility: 8 miles (13 km)

Cloud details: Overcast 400 ft


2019/04/20 07:53 KEWB 200753Z AUTO 20020G31KT 8SM OVC004 17/17 A2982 RMK AO2 PK WND 20039/0657 SLP097 T01670167

KMWN - Mount Washington, NH


Distance from station: N 126mi, 203km

Updated Sat Apr 20, 2019 3:54am EDT

Rain, Fog, Overcast

Rain, Fog, Overcast

Wind from SW

Wind:

SW 48 mph , 78 km/h,
Gust: 67 mph , 107 km/h

Temperature: 46°F (8°C)

Wind Chill: 34°F (1°C)

Dew Point: 46°F (8°C)

Humidity: 100%

Summary: Rain, Fog

Clouds: Overcast

Visibility: 1/16 mile (0 km)

Cloud details: Overcast 0 ft


2019/04/20 07:54 KMWN 200754Z 22042G58KT 1/16SM RA FG VV000 08/08 RMK